createdAt,value
2023-04-29T00:00:22.142Z,96913.03
2023-04-29T00:02:24.902Z,96908.53
2023-04-29T00:04:29.245Z,96908.97
2023-04-29T00:06:31.978Z,96900.78
2023-04-29T00:08:34.590Z,96908.91
2023-04-29T00:10:37.785Z,96909.91
2023-04-29T00:12:41.219Z,96896.56
2023-04-29T00:14:44.041Z,96898.00
2023-04-29T00:16:46.883Z,96907.53
2023-04-29T00:18:50.741Z,96898.41
2023-04-29T00:20:54.652Z,96894.94
2023-04-29T00:22:57.216Z,96893.66
2023-04-29T00:24:59.788Z,96899.44
2023-04-29T00:27:02.637Z,96891.47
2023-04-29T00:29:05.226Z,96899.16
2023-04-29T00:31:07.831Z,96891.72
2023-04-29T00:33:10.708Z,96890.19
2023-04-29T00:35:13.532Z,96894.16
2023-04-29T00:37:17.479Z,96893.94
2023-04-29T00:39:20.030Z,96889.78
2023-04-29T00:41:22.650Z,96894.34
2023-04-29T00:43:25.307Z,96891.91
2023-04-29T00:45:27.991Z,96898.13
2023-04-29T00:47:30.575Z,96892.16
2023-04-29T00:49:33.214Z,96902.38
2023-04-29T00:51:37.496Z,96901.78
2023-04-29T00:53:41.890Z,96907.19
2023-04-29T00:55:45.432Z,96911.41
2023-04-29T00:57:50.057Z,96908.69
2023-04-29T00:59:53.752Z,96909.47
2023-04-29T01:01:56.807Z,96902.38
2023-04-29T01:03:59.736Z,96910.63
2023-04-29T01:06:14.111Z,96910.91
2023-04-29T01:08:27.097Z,96911.50
2023-04-29T01:10:36.744Z,96911.56
2023-04-29T01:12:47.253Z,96911.22
2023-04-29T01:14:58.806Z,96907.94
2023-04-29T01:17:06.739Z,96908.78
2023-04-29T01:19:20.811Z,96905.41
2023-04-29T01:21:23.810Z,96909.38
2023-04-29T01:23:29.060Z,96902.78
2023-04-29T01:25:31.792Z,96903.81
2023-04-29T01:27:38.116Z,96906.50
2023-04-29T01:29:48.338Z,96906.16
2023-04-29T01:31:59.459Z,96902.28
2023-04-29T01:34:10.227Z,96901.50
2023-04-29T01:36:23.983Z,96901.59
2023-04-29T01:38:37.758Z,96900.84
2023-04-29T01:40:48.665Z,96903.88
2023-04-29T01:43:01.394Z,96901.88
2023-04-29T01:45:08.038Z,96904.56
2023-04-29T01:47:14.476Z,96906.81
2023-04-29T01:49:17.024Z,96901.59
2023-04-29T01:51:22.014Z,96895.34
2023-04-29T01:53:27.363Z,96904.28
2023-04-29T01:55:31.417Z,96901.75
2023-04-29T01:57:34.338Z,96900.06
2023-04-29T01:59:37.293Z,96905.38
2023-04-29T02:01:39.904Z,96912.22
2023-04-29T02:03:42.613Z,96902.44
2023-04-29T02:05:45.347Z,96900.81
2023-04-29T02:07:47.922Z,96905.06
2023-04-29T02:09:50.903Z,96901.94
2023-04-29T02:11:55.301Z,96900.16
2023-04-29T02:13:57.850Z,96908.94
2023-04-29T02:16:08.628Z,96904.88
2023-04-29T02:18:11.254Z,96904.88
2023-04-29T02:20:14.240Z,96901.75
2023-04-29T02:22:17.004Z,96908.00
2023-04-29T02:24:19.554Z,96909.69
2023-04-29T02:26:22.242Z,96909.78
2023-04-29T02:28:26.323Z,96905.28
2023-04-29T02:30:28.906Z,96907.16
2023-04-29T02:32:31.628Z,96896.34
2023-04-29T02:34:34.682Z,96906.34
2023-04-29T02:36:37.260Z,96900.25
2023-04-29T02:38:39.863Z,96905.91
2023-04-29T02:40:43.143Z,96901.59
2023-04-29T02:42:45.695Z,96900.22
2023-04-29T02:44:49.768Z,96904.00
2023-04-29T02:46:52.339Z,96900.72
2023-04-29T02:48:54.880Z,96904.28
2023-04-29T02:50:57.459Z,96904.94
2023-04-29T02:53:00.075Z,96898.72
2023-04-29T02:55:03.114Z,96896.50
2023-04-29T02:57:05.734Z,96898.25
2023-04-29T02:59:08.337Z,96901.56
2023-04-29T03:01:12.356Z,96906.31
2023-04-29T03:03:15.091Z,96903.31
2023-04-29T03:05:17.999Z,96909.75
2023-04-29T03:07:20.843Z,96905.53
2023-04-29T03:09:23.625Z,96906.78
2023-04-29T03:11:26.320Z,96907.53
2023-04-29T03:13:28.906Z,96910.75
2023-04-29T03:15:31.474Z,96912.00
2023-04-29T03:17:35.675Z,96905.31
2023-04-29T03:19:38.252Z,96910.41
2023-04-29T03:21:40.814Z,96911.66
2023-04-29T03:23:43.422Z,96910.88
2023-04-29T03:25:46.027Z,96907.41
2023-04-29T03:27:48.588Z,96895.28
2023-04-29T03:29:51.340Z,96898.78
2023-04-29T03:31:54.115Z,96898.06
2023-04-29T03:33:58.003Z,96892.88
2023-04-29T03:36:00.709Z,96899.22
2023-04-29T03:38:03.507Z,96900.06
2023-04-29T03:40:07.247Z,96896.69
2023-04-29T03:42:09.864Z,96889.66
2023-04-29T03:44:12.418Z,96892.28
2023-04-29T03:46:14.965Z,96888.84
2023-04-29T03:48:17.726Z,96891.44
2023-04-29T03:50:21.643Z,96888.84
2023-04-29T03:52:24.312Z,96890.22
2023-04-29T03:54:26.965Z,96893.03
2023-04-29T03:56:29.595Z,96887.63
2023-04-29T03:58:32.207Z,96882.03
2023-04-29T04:00:34.964Z,96879.28
2023-04-29T04:02:37.694Z,96882.06
2023-04-29T04:04:41.488Z,96877.00
2023-04-29T04:06:51.209Z,96877.06
2023-04-29T04:08:53.862Z,96883.38
2023-04-29T04:11:02.713Z,96887.75
2023-04-29T04:13:05.278Z,96885.00
2023-04-29T04:15:08.802Z,96890.97
2023-04-29T04:17:11.744Z,96892.16
2023-04-29T04:19:14.319Z,96901.84
2023-04-29T04:21:16.900Z,96905.44
2023-04-29T04:23:20.806Z,96895.94
2023-04-29T04:25:23.356Z,96903.84
2023-04-29T04:27:25.936Z,96906.56
2023-04-29T04:29:28.548Z,96909.16
2023-04-29T04:31:31.204Z,96911.00
2023-04-29T04:33:34.569Z,96913.63
2023-04-29T04:35:37.176Z,96920.53
2023-04-29T04:37:39.766Z,96918.78
2023-04-29T04:39:43.701Z,96922.84
2023-04-29T04:41:46.268Z,96926.44
2023-04-29T04:43:48.818Z,96930.22
2023-04-29T04:45:51.659Z,96926.09
2023-04-29T04:47:54.264Z,96927.84
2023-04-29T04:49:56.838Z,96928.75
2023-04-29T04:51:59.384Z,96930.38
2023-04-29T04:54:01.929Z,96934.75
2023-04-29T04:56:06.557Z,96939.91
2023-04-29T04:58:09.153Z,96947.69
2023-04-29T05:00:13.283Z,96944.06
2023-04-29T05:02:15.896Z,96955.22
2023-04-29T05:04:18.749Z,96959.38
2023-04-29T05:06:21.462Z,96961.13
2023-04-29T05:08:24.089Z,96958.44
2023-04-29T05:10:27.174Z,96959.13
2023-04-29T05:12:31.729Z,96962.59
2023-04-29T05:14:34.315Z,96958.88
2023-04-29T05:16:36.960Z,96979.34
2023-04-29T05:18:39.601Z,96973.34
2023-04-29T05:20:42.174Z,96976.81
2023-04-29T05:22:44.767Z,96977.59
2023-04-29T05:24:48.304Z,96980.97
2023-04-29T05:26:52.011Z,96982.56
2023-04-29T05:28:56.004Z,96979.81
2023-04-29T05:30:58.691Z,96990.22
2023-04-29T05:33:01.655Z,96993.44
2023-04-29T05:35:06.745Z,96988.97
2023-04-29T05:37:10.052Z,96996.66
2023-04-29T05:39:12.587Z,97002.66
2023-04-29T05:41:15.166Z,97002.50
2023-04-29T05:43:17.739Z,97010.88
2023-04-29T05:45:21.862Z,97009.88
2023-04-29T05:47:24.567Z,97011.47
2023-04-29T05:49:27.157Z,97016.50
2023-04-29T05:51:29.736Z,97015.38
2023-04-29T05:53:33.237Z,97024.00
2023-04-29T05:55:35.839Z,97019.72
2023-04-29T05:57:38.398Z,97026.72
2023-04-29T05:59:40.972Z,97027.50
2023-04-29T06:01:44.848Z,97039.16
2023-04-29T06:03:47.563Z,97042.63
2023-04-29T06:05:50.548Z,97038.31
2023-04-29T06:07:53.626Z,97036.91
2023-04-29T06:09:57.136Z,97037.38
2023-04-29T06:11:59.692Z,97044.53
2023-04-29T06:14:02.378Z,97046.63
2023-04-29T06:16:05.243Z,97053.97
2023-04-29T06:18:09.224Z,97057.13
2023-04-29T06:20:12.650Z,97051.81
2023-04-29T06:22:15.200Z,97054.88
2023-04-29T06:24:17.846Z,97062.69
2023-04-29T06:26:20.920Z,97067.44
2023-04-29T06:28:23.516Z,97069.31
2023-04-29T06:30:26.156Z,97075.69
2023-04-29T06:32:28.749Z,97076.38
2023-04-29T06:34:32.977Z,97084.75
2023-04-29T06:36:35.525Z,97086.00
2023-04-29T06:38:38.160Z,97087.44
2023-04-29T06:40:40.766Z,97093.84
2023-04-29T06:42:43.745Z,97086.47
2023-04-29T06:44:46.448Z,97090.16
2023-04-29T06:46:49.077Z,97089.81
2023-04-29T06:48:51.677Z,97088.78
2023-04-29T06:50:57.114Z,97092.88
2023-04-29T06:52:59.723Z,97087.47
2023-04-29T06:55:02.279Z,97087.06
2023-04-29T06:57:04.936Z,97091.53
2023-04-29T06:59:07.742Z,97090.56
2023-04-29T07:01:11.008Z,97093.97
2023-04-29T07:03:13.906Z,97100.31
2023-04-29T07:05:16.493Z,97096.44
2023-04-29T07:07:20.407Z,97096.22
2023-04-29T07:09:23.610Z,97096.03
2023-04-29T07:11:26.885Z,97097.75
2023-04-29T07:13:29.440Z,97088.44
2023-04-29T07:15:36.891Z,97093.91
2023-04-29T07:17:39.498Z,97104.59
2023-04-29T07:19:42.095Z,97111.94
2023-04-29T07:21:44.684Z,97108.22
2023-04-29T07:23:48.726Z,97107.63
2023-04-29T07:25:52.264Z,97103.72
2023-04-29T07:27:54.821Z,97109.66
2023-04-29T07:29:57.802Z,97107.72
2023-04-29T07:32:00.402Z,97111.28
2023-04-29T07:34:03.007Z,97111.59
2023-04-29T07:36:07.322Z,97108.88
2023-04-29T07:38:10.230Z,97113.03
2023-04-29T07:40:14.370Z,97105.09
2023-04-29T07:42:16.929Z,97102.13
2023-04-29T07:44:19.493Z,97113.34
2023-04-29T07:46:22.123Z,97107.53
2023-04-29T07:48:24.695Z,97112.97
2023-04-29T07:50:27.935Z,97118.78
2023-04-29T07:52:30.492Z,97120.50
2023-04-29T07:54:33.123Z,97111.28
2023-04-29T07:56:37.065Z,97118.34
2023-04-29T07:58:39.620Z,97119.38
2023-04-29T08:00:42.446Z,97124.78
2023-04-29T08:02:45.466Z,97126.31
2023-04-29T08:04:48.737Z,97124.53
2023-04-29T08:06:51.700Z,97130.88
2023-04-29T08:08:56.223Z,97124.47
2023-04-29T08:10:58.850Z,97122.50
2023-04-29T08:13:02.784Z,97125.84
2023-04-29T08:15:07.807Z,97131.63
2023-04-29T08:17:12.198Z,97126.13
2023-04-29T08:19:14.756Z,97129.75
2023-04-29T08:21:17.310Z,97126.78
2023-04-29T08:23:19.916Z,97132.94
2023-04-29T08:25:22.532Z,97132.38
2023-04-29T08:27:25.080Z,97130.88
2023-04-29T08:29:29.028Z,97135.44
2023-04-29T08:31:31.929Z,97130.44
2023-04-29T08:33:34.570Z,97128.09
2023-04-29T08:35:38.511Z,97132.47
2023-04-29T08:37:41.387Z,97130.97
2023-04-29T08:39:46.753Z,97133.06
2023-04-29T08:41:51.671Z,97132.91
2023-04-29T08:43:54.268Z,97136.88
2023-04-29T08:45:59.275Z,97134.78
2023-04-29T08:48:04.424Z,97125.88
2023-04-29T08:50:08.513Z,97129.63
2023-04-29T08:52:11.604Z,97125.47
2023-04-29T08:54:14.213Z,97121.84
2023-04-29T08:56:21.821Z,97125.28
2023-04-29T08:58:26.434Z,97130.53
2023-04-29T09:00:31.623Z,97127.00
2023-04-29T09:02:42.270Z,97135.69
2023-04-29T09:04:50.839Z,97135.63
2023-04-29T09:06:56.493Z,97131.03
2023-04-29T09:09:00.331Z,97123.91
2023-04-29T09:11:03.656Z,97118.25
2023-04-29T09:13:06.723Z,97122.63
2023-04-29T09:15:10.452Z,97121.69
2023-04-29T09:17:13.011Z,97119.00
2023-04-29T09:19:31.113Z,97114.41
2023-04-29T09:21:36.001Z,97121.72
2023-04-29T09:23:38.743Z,97124.09
2023-04-29T09:25:41.298Z,97125.28
2023-04-29T09:27:44.063Z,97122.97
2023-04-29T09:30:02.020Z,97121.16
2023-04-29T09:32:19.835Z,97123.25
2023-04-29T09:34:33.569Z,97120.22
2023-04-29T09:36:44.979Z,97132.53
2023-04-29T09:38:55.851Z,97131.31
2023-04-29T09:40:59.926Z,97134.28
2023-04-29T09:43:05.068Z,97129.22
2023-04-29T09:45:09.399Z,97125.72
2023-04-29T09:47:13.366Z,97135.13
2023-04-29T09:49:26.082Z,97133.34
2023-04-29T09:51:32.323Z,97130.63
2023-04-29T09:53:38.021Z,97134.94
2023-04-29T09:56:01.554Z,97136.00
2023-04-29T09:58:04.144Z,97132.41
2023-04-29T10:00:08.714Z,97135.50
2023-04-29T10:02:16.215Z,97133.53
2023-04-29T10:04:20.696Z,97135.06
2023-04-29T10:06:25.288Z,97134.41
2023-04-29T10:08:30.907Z,97138.81
2023-04-29T10:10:35.875Z,97132.69
2023-04-29T10:12:40.842Z,97130.06
2023-04-29T10:14:48.866Z,97133.00
2023-04-29T10:17:00.140Z,97134.13
2023-04-29T10:19:06.882Z,97129.72
2023-04-29T10:21:10.507Z,97129.63
2023-04-29T10:23:14.897Z,97127.34
2023-04-29T10:25:20.580Z,97135.44
2023-04-29T10:27:25.442Z,97125.03
2023-04-29T10:29:31.240Z,97131.69
2023-04-29T10:31:35.492Z,97126.91
2023-04-29T10:33:39.627Z,97124.63
2023-04-29T10:35:45.090Z,97129.34
2023-04-29T10:37:49.491Z,97129.06
2023-04-29T10:39:58.895Z,97126.53
2023-04-29T10:42:06.953Z,97127.47
2023-04-29T10:44:09.525Z,97132.63
2023-04-29T10:46:19.471Z,97124.63
2023-04-29T10:48:24.526Z,97120.13
2023-04-29T10:50:29.288Z,97118.25
2023-04-29T10:52:31.925Z,97126.06
2023-04-29T10:54:34.498Z,97126.81
2023-04-29T10:56:45.310Z,97124.09
2023-04-29T10:58:49.211Z,97119.59
2023-04-29T11:00:51.828Z,97120.44
2023-04-29T11:02:54.967Z,97117.81
2023-04-29T11:05:11.181Z,97119.50
2023-04-29T11:07:28.480Z,97118.72
2023-04-29T11:09:34.004Z,97109.91
2023-04-29T11:12:02.986Z,97109.16
2023-04-29T11:14:09.947Z,97109.63
2023-04-29T11:16:13.831Z,97106.91
2023-04-29T11:18:16.466Z,97104.66
2023-04-29T11:20:19.183Z,97102.13
2023-04-29T11:22:30.335Z,97099.31
2023-04-29T11:24:35.557Z,97107.94
2023-04-29T11:26:38.377Z,97107.22
2023-04-29T11:28:43.362Z,97102.69
2023-04-29T11:30:48.201Z,97099.03
2023-04-29T11:32:52.011Z,97096.84
2023-04-29T11:34:55.134Z,97101.44
2023-04-29T11:36:57.974Z,97098.03
2023-04-29T11:39:01.720Z,97105.72
2023-04-29T11:41:04.884Z,97111.84
2023-04-29T11:43:07.447Z,97104.72
2023-04-29T11:45:10.701Z,97100.19
2023-04-29T11:47:14.644Z,97096.50
2023-04-29T11:49:17.220Z,97106.00
2023-04-29T11:51:20.842Z,97100.53
2023-04-29T11:53:27.771Z,97101.28
2023-04-29T11:55:30.931Z,97095.66
2023-04-29T11:57:33.521Z,97103.78
2023-04-29T11:59:36.120Z,97103.66
2023-04-29T12:01:38.966Z,97101.88
2023-04-29T12:03:45.228Z,97106.19
2023-04-29T12:05:49.464Z,97105.88
2023-04-29T12:07:52.093Z,97089.91
2023-04-29T12:09:56.372Z,97101.25
2023-04-29T12:11:59.024Z,97106.53
2023-04-29T12:14:06.037Z,97109.25
2023-04-29T12:16:09.008Z,97119.91
2023-04-29T12:18:11.746Z,97121.69
2023-04-29T12:20:16.416Z,97109.69
2023-04-29T12:22:20.850Z,97109.69
2023-04-29T12:24:23.994Z,97112.16
2023-04-29T12:26:29.597Z,97112.59
2023-04-29T12:28:32.174Z,97110.72
2023-04-29T12:30:36.432Z,97111.47
2023-04-29T12:32:39.295Z,97113.78
2023-04-29T12:34:41.869Z,97104.09
2023-04-29T12:36:46.268Z,97108.78
2023-04-29T12:38:49.106Z,97107.22
2023-04-29T12:40:51.960Z,97108.38
2023-04-29T12:42:54.840Z,97105.00
2023-04-29T12:44:58.168Z,97112.81
2023-04-29T12:47:09.162Z,97108.91
2023-04-29T12:49:12.495Z,97103.63
2023-04-29T12:51:15.023Z,97116.81
2023-04-29T12:53:18.989Z,97120.38
2023-04-29T12:55:21.578Z,97120.59
2023-04-29T12:57:25.173Z,97122.38
2023-04-29T12:59:27.747Z,97119.31
2023-04-29T13:01:30.401Z,97119.44
2023-04-29T13:03:34.268Z,97115.28
2023-04-29T13:05:37.083Z,97114.44
2023-04-29T13:07:39.728Z,97119.72
2023-04-29T13:09:43.659Z,97118.78
2023-04-29T13:11:46.417Z,97115.13
2023-04-29T13:13:48.947Z,97121.75
2023-04-29T13:15:51.565Z,97116.59
2023-04-29T13:17:55.423Z,97118.50
2023-04-29T13:19:58.007Z,97126.19
2023-04-29T13:22:00.727Z,97119.88
2023-04-29T13:24:03.322Z,97122.59
2023-04-29T13:26:08.868Z,97122.38
2023-04-29T13:28:11.846Z,97118.00
2023-04-29T13:30:14.921Z,97124.69
2023-04-29T13:32:18.748Z,97126.81
2023-04-29T13:34:21.682Z,97131.00
2023-04-29T13:36:24.252Z,97128.00
2023-04-29T13:38:26.803Z,97128.97
2023-04-29T13:40:29.386Z,97135.44
2023-04-29T13:42:39.120Z,97141.13
2023-04-29T13:44:53.164Z,97136.47
2023-04-29T13:46:56.219Z,97135.66
2023-04-29T13:49:17.459Z,97140.53
2023-04-29T13:53:56.868Z,97152.53
2023-04-29T13:56:41.251Z,97144.19
2023-04-29T13:58:52.210Z,97142.63
2023-04-29T14:02:43.131Z,97150.53
2023-04-29T14:04:45.955Z,97146.34
2023-04-29T14:06:48.608Z,97145.19
2023-04-29T14:08:51.477Z,97143.59
2023-04-29T14:10:54.059Z,97150.25
2023-04-29T14:12:56.708Z,97153.31
2023-04-29T14:15:00.853Z,97149.38
2023-04-29T14:17:03.788Z,97149.31
2023-04-29T14:19:07.091Z,97152.78
2023-04-29T14:21:11.010Z,97155.41
2023-04-29T14:23:13.589Z,97157.09
2023-04-29T14:25:16.340Z,97157.81
2023-04-29T14:27:18.890Z,97155.09
2023-04-29T14:29:21.608Z,97161.25
2023-04-29T14:31:25.694Z,97161.38
2023-04-29T14:33:28.289Z,97160.16
2023-04-29T14:35:31.538Z,97163.00
2023-04-29T14:37:34.167Z,97173.00
2023-04-29T14:39:36.968Z,97180.34
2023-04-29T14:41:39.555Z,97173.31
2023-04-29T14:43:42.518Z,97182.44
2023-04-29T14:45:45.280Z,97182.00
2023-04-29T14:47:49.173Z,97175.44
2023-04-29T14:49:51.742Z,97187.09
2023-04-29T14:51:54.475Z,97195.22
2023-04-29T14:53:57.022Z,97192.03
2023-04-29T14:55:59.622Z,97191.06
2023-04-29T14:58:04.946Z,97193.25
2023-04-29T15:00:09.951Z,97195.25
2023-04-29T15:02:12.927Z,97205.00
2023-04-29T15:04:17.019Z,97205.31
2023-04-29T15:06:19.685Z,97204.56
2023-04-29T15:08:22.641Z,97204.00
2023-04-29T15:10:25.382Z,97207.56
2023-04-29T15:12:27.964Z,97214.13
2023-04-29T15:14:30.577Z,97217.16
2023-04-29T15:16:33.259Z,97221.13
2023-04-29T15:18:36.531Z,97210.78
2023-04-29T15:20:40.463Z,97217.16
2023-04-29T15:22:43.070Z,97220.00
2023-04-29T15:24:45.997Z,97221.13
2023-04-29T15:26:48.702Z,97224.03
2023-04-29T15:28:51.270Z,97224.22
2023-04-29T15:30:54.018Z,97226.13
2023-04-29T15:32:56.759Z,97229.75
2023-04-29T15:34:59.649Z,97240.47
2023-04-29T15:37:03.613Z,97237.84
2023-04-29T15:39:06.167Z,97239.72
2023-04-29T15:41:08.739Z,97236.31
2023-04-29T15:43:11.304Z,97236.50
2023-04-29T15:45:13.965Z,97233.97
2023-04-29T15:47:16.580Z,97240.22
2023-04-29T15:49:19.131Z,97245.50
2023-04-29T15:51:21.701Z,97250.84
2023-04-29T15:53:25.836Z,97244.91
2023-04-29T15:55:28.488Z,97243.25
2023-04-29T15:57:31.018Z,97241.53
2023-04-29T15:59:33.676Z,97251.13
2023-04-29T16:01:36.657Z,97251.28
2023-04-29T16:03:39.688Z,97254.09
2023-04-29T16:05:42.285Z,97256.94
2023-04-29T16:07:44.912Z,97254.41
2023-04-29T16:09:48.802Z,97258.97
2023-04-29T16:11:53.593Z,97257.38
2023-04-29T16:13:56.219Z,97259.19
2023-04-29T16:15:58.865Z,97259.28
2023-04-29T16:18:01.764Z,97257.56
2023-04-29T16:20:05.376Z,97255.03
2023-04-29T16:22:07.981Z,97262.25
2023-04-29T16:24:10.531Z,97258.75
2023-04-29T16:26:14.510Z,97266.63
2023-04-29T16:28:17.269Z,97269.38
2023-04-29T16:30:19.806Z,97270.22
2023-04-29T16:32:22.428Z,97271.75
2023-04-29T16:34:25.124Z,97268.44
2023-04-29T16:36:27.914Z,97272.94
2023-04-29T16:38:30.482Z,97274.72
2023-04-29T16:40:33.043Z,97280.81
2023-04-29T16:42:36.946Z,97281.00
2023-04-29T16:44:39.524Z,97276.56
2023-04-29T16:46:43.788Z,97282.69
2023-04-29T16:48:46.583Z,97280.16
2023-04-29T16:50:50.557Z,97276.75
2023-04-29T16:52:53.652Z,97285.41
2023-04-29T16:54:57.102Z,97288.13
2023-04-29T16:56:59.690Z,97287.28
2023-04-29T16:59:03.726Z,97296.09
2023-04-29T17:01:07.798Z,97293.53
2023-04-29T17:03:10.915Z,97301.59
2023-04-29T17:05:13.799Z,97302.47
2023-04-29T17:07:19.329Z,97297.28
2023-04-29T17:09:25.854Z,97304.13
2023-04-29T17:11:28.477Z,97301.50
2023-04-29T17:13:31.067Z,97292.88
2023-04-29T17:15:34.994Z,97299.16
2023-04-29T17:17:37.737Z,97303.56
2023-04-29T17:19:40.327Z,97301.13
2023-04-29T17:21:42.989Z,97302.88
2023-04-29T17:23:45.551Z,97304.75
2023-04-29T17:25:48.190Z,97301.28
2023-04-29T17:27:50.790Z,97297.91
2023-04-29T17:29:53.659Z,97299.00
2023-04-29T17:31:59.933Z,97302.56
2023-04-29T17:34:18.133Z,97304.44
2023-04-29T17:36:20.758Z,97301.03
2023-04-29T17:38:23.337Z,97308.91
2023-04-29T17:40:26.058Z,97309.09
2023-04-29T17:42:28.625Z,97310.88
2023-04-29T17:44:31.177Z,97310.88
2023-04-29T17:46:33.992Z,97308.25
2023-04-29T17:48:37.921Z,97311.81
2023-04-29T17:50:40.519Z,97312.81
2023-04-29T17:52:43.122Z,97305.88
2023-04-29T17:54:45.668Z,97322.56
2023-04-29T17:56:48.263Z,97324.44
2023-04-29T17:58:50.920Z,97328.94
2023-04-29T18:00:53.478Z,97328.94
2023-04-29T18:02:56.163Z,97331.66
2023-04-29T18:05:00.299Z,97327.31
2023-04-29T18:07:02.905Z,97329.16
2023-04-29T18:09:05.558Z,97325.81
2023-04-29T18:11:09.791Z,97327.66
2023-04-29T18:13:12.382Z,97332.47
2023-04-29T18:15:16.588Z,97333.75
2023-04-29T18:17:19.293Z,97330.38
2023-04-29T18:19:21.867Z,97338.31
2023-04-29T18:21:27.339Z,97328.06
2023-04-29T18:23:29.993Z,97329.84
2023-04-29T18:25:32.541Z,97330.88
2023-04-29T18:27:35.118Z,97338.91
2023-04-29T18:29:37.712Z,97329.34
2023-04-29T18:31:40.346Z,97334.59
2023-04-29T18:33:43.088Z,97330.28
2023-04-29T18:35:45.689Z,97328.56
2023-04-29T18:37:49.807Z,97331.34
2023-04-29T18:39:54.909Z,97341.84
2023-04-29T18:41:58.054Z,97339.38
2023-04-29T18:44:00.628Z,97340.28
2023-04-29T18:46:03.423Z,97349.09
2023-04-29T18:48:06.971Z,97345.72
2023-04-29T18:50:09.846Z,97340.47
2023-04-29T18:52:12.448Z,97353.75
2023-04-29T18:54:17.528Z,97350.38
2023-04-29T18:56:20.093Z,97348.69
2023-04-29T18:58:22.744Z,97355.78
2023-04-29T19:00:25.700Z,97350.63
2023-04-29T19:02:28.298Z,97355.94
2023-04-29T19:04:30.922Z,97360.25
2023-04-29T19:06:33.649Z,97363.13
2023-04-29T19:08:36.380Z,97364.13
2023-04-29T19:10:40.291Z,97366.75
2023-04-29T19:12:42.842Z,97361.59
2023-04-29T19:14:45.503Z,97366.94
2023-04-29T19:16:48.047Z,97368.69
2023-04-29T19:18:50.662Z,97366.06
2023-04-29T19:20:53.622Z,97373.09
2023-04-29T19:22:56.726Z,97378.19
2023-04-29T19:24:59.277Z,97380.13
2023-04-29T19:27:03.542Z,97375.88
2023-04-29T19:29:08.898Z,97385.59
2023-04-29T19:31:12.026Z,97386.63
2023-04-29T19:33:14.707Z,97387.47
2023-04-29T19:35:17.296Z,97387.59
2023-04-29T19:37:19.858Z,97388.53
2023-04-29T19:39:22.425Z,97398.09
2023-04-29T19:41:25.050Z,97399.91
2023-04-29T19:43:28.931Z,97393.00
2023-04-29T19:45:31.530Z,97395.63
2023-04-29T19:47:34.712Z,97392.16
2023-04-29T19:49:37.702Z,97396.59
2023-04-29T19:51:40.789Z,97387.00
2023-04-29T19:53:43.393Z,97390.56
2023-04-29T19:55:51.193Z,97396.59
2023-04-29T19:57:54.363Z,97392.25
2023-04-29T19:59:58.285Z,97394.03
2023-04-29T20:02:00.863Z,97400.19
2023-04-29T20:04:03.531Z,97395.03
2023-04-29T20:06:06.777Z,97395.97
2023-04-29T20:08:09.394Z,97398.59
2023-04-29T20:10:12.663Z,97395.13
2023-04-29T20:12:15.217Z,97396.88
2023-04-29T20:14:17.818Z,97402.22
2023-04-29T20:16:23.249Z,97406.59
2023-04-29T20:18:26.324Z,97410.06
2023-04-29T20:20:28.982Z,97409.22
2023-04-29T20:22:31.548Z,97420.66
2023-04-29T20:24:34.120Z,97408.44
2023-04-29T20:26:36.680Z,97416.31
2023-04-29T20:28:39.661Z,97419.88
2023-04-29T20:30:42.209Z,97418.19
2023-04-29T20:32:46.195Z,97415.56
2023-04-29T20:34:49.157Z,97414.78
2023-04-29T20:36:51.751Z,97423.56
2023-04-29T20:38:54.299Z,97421.88
2023-04-29T20:40:57.593Z,97422.81
2023-04-29T20:43:00.762Z,97427.13
2023-04-29T20:45:03.351Z,97424.50
2023-04-29T20:47:05.984Z,97424.50
2023-04-29T20:49:09.926Z,97426.34
2023-04-29T20:51:13.560Z,97425.44
2023-04-29T20:53:16.858Z,97419.34
2023-04-29T20:55:19.455Z,97425.44
2023-04-29T20:57:22.031Z,97423.72
2023-04-29T20:59:24.782Z,97424.59
2023-04-29T21:01:27.500Z,97420.25
2023-04-29T21:03:30.104Z,97421.03
2023-04-29T21:05:34.727Z,97431.50
2023-04-29T21:07:37.493Z,97424.50
2023-04-29T21:09:40.160Z,97425.44
2023-04-29T21:11:42.737Z,97427.28
2023-04-29T21:13:49.883Z,97429.13
2023-04-29T21:15:52.590Z,97429.13
2023-04-29T21:17:55.296Z,97426.59
2023-04-29T21:19:57.901Z,97430.03
2023-04-29T21:22:01.818Z,97425.81
2023-04-29T21:24:04.767Z,97425.03
2023-04-29T21:26:07.345Z,97426.78
2023-04-29T21:28:09.917Z,97426.88
2023-04-29T21:30:13.139Z,97429.56
2023-04-29T21:32:21.370Z,97427.03
2023-04-29T21:34:24.062Z,97424.50
2023-04-29T21:36:26.910Z,97418.47
2023-04-29T21:38:30.836Z,97420.19
2023-04-29T21:40:33.411Z,97426.34
2023-04-29T21:42:36.654Z,97422.03
2023-04-29T21:44:39.687Z,97422.94
2023-04-29T21:46:42.480Z,97421.25
2023-04-29T21:48:45.527Z,97419.50
2023-04-29T21:50:49.862Z,97416.00
2023-04-29T21:52:52.429Z,97417.78
2023-04-29T21:54:56.445Z,97418.72
2023-04-29T21:56:58.994Z,97421.47
2023-04-29T21:59:01.634Z,97418.91
2023-04-29T22:01:15.685Z,97416.44
2023-04-29T22:03:18.427Z,97414.69
2023-04-29T22:05:21.228Z,97416.53
2023-04-29T22:07:26.119Z,97416.69
2023-04-29T22:09:31.554Z,97416.69
2023-04-29T22:11:35.691Z,97426.25
2023-04-29T22:13:38.258Z,97421.00
2023-04-29T22:15:40.857Z,97424.47
2023-04-29T22:17:43.474Z,97432.34
2023-04-29T22:19:46.090Z,97426.31
2023-04-29T22:21:48.646Z,97424.56
2023-04-29T22:23:51.318Z,97425.38
2023-04-29T22:25:53.882Z,97427.16
2023-04-29T22:27:57.797Z,97431.56
2023-04-29T22:30:00.529Z,97430.63
2023-04-29T22:32:03.151Z,97430.78
2023-04-29T22:34:05.724Z,97435.13
2023-04-29T22:36:08.385Z,97430.84
2023-04-29T22:38:11.110Z,97436.94
2023-04-29T22:40:14.736Z,97432.63
2023-04-29T22:42:18.167Z,97429.25
2023-04-29T22:44:22.062Z,97426.75
2023-04-29T22:46:24.754Z,97423.31
2023-04-29T22:48:28.053Z,97419.97
2023-04-29T22:50:30.673Z,97419.03
2023-04-29T22:52:33.652Z,97420.88
2023-04-29T22:54:36.305Z,97420.03
2023-04-29T22:56:38.903Z,97419.19
2023-04-29T22:58:41.526Z,97419.19
2023-04-29T23:00:46.406Z,97423.50
2023-04-29T23:02:49.021Z,97425.25
2023-04-29T23:04:51.859Z,97422.66
2023-04-29T23:06:54.507Z,97419.19
2023-04-29T23:08:57.096Z,97426.28
2023-04-29T23:10:59.719Z,97423.66
2023-04-29T23:13:02.859Z,97426.34
2023-04-29T23:15:06.762Z,97432.50
2023-04-29T23:17:10.753Z,97430.81
2023-04-29T23:19:13.334Z,97437.00
2023-04-29T23:21:15.888Z,97427.41
2023-04-29T23:23:18.690Z,97435.34
2023-04-29T23:25:21.392Z,97437.97
2023-04-29T23:27:24.037Z,97436.34
2023-04-29T23:29:26.572Z,97436.44
2023-04-29T23:31:29.219Z,97435.63
2023-04-29T23:33:33.211Z,97433.84
2023-04-29T23:35:35.857Z,97437.38
2023-04-29T23:37:38.563Z,97434.84
2023-04-29T23:39:41.150Z,97433.13
2023-04-29T23:41:43.706Z,97434.06
2023-04-29T23:43:46.318Z,97434.97
2023-04-29T23:45:48.885Z,97436.75
2023-04-29T23:47:51.461Z,97433.34
2023-04-29T23:49:55.756Z,97437.81
2023-04-29T23:51:58.735Z,97436.94
2023-04-29T23:54:01.280Z,97436.19
2023-04-29T23:56:03.844Z,97433.63
2023-04-29T23:58:06.391Z,97437.25
